Date,TemperatureHighF,TemperatureAvgF,TemperatureLowF,DewpointHighF,DewpointAvgF,DewpointLowF,HumidityHigh,HumidityAvg,HumidityLow,PressureMaxIn,PressureMinIn,WindSpeedMaxMPH,WindSpeedAvgMPH,GustSpeedMaxMPH,PrecipitationSumIn
2012-1-1,57.4,39.9,28.5,51.3,34.8,21.7,99,84,49,30.16,29.90,16,1,21,0.07
2012-1-2,39.3,29.3,18.9,23.2,16.3,9.8,86,59,40,30.23,30.05,27,2,28,0.00
2012-1-3,25.0,19.9,14.8,15.4,12.4,9.4,89,73,54,30.42,30.23,12,1,18,0.00
2012-1-4,40.3,24.5,12.7,23.4,16.1,10.3,92,73,36,30.41,30.11,11,1,14,0.00
2012-1-5,48.9,32.4,21.9,31.2,24.5,20.1,94,76,37,30.20,30.09,11,1,12,0.00
2012-1-6,57.0,34.4,22.1,33.8,27.0,20.6,95,78,35,30.15,29.98,10,1,12,0.00
2012-1-7,58.4,44.4,30.1,51.3,41.1,27.8,100,89,76,30.08,29.94,7,1,12,0.01
2012-1-8,51.0,41.9,34.0,43.6,38.8,33.4,100,90,54,30.22,30.09,5,0,7,0.04
2012-1-9,49.9,45.5,39.9,48.5,45.0,39.1,100,98,94,30.16,30.03,7,0,11,0.34
2012-1-10,50.2,42.2,31.8,47.0,38.6,31.8,100,88,63,30.11,29.87,4,0,7,0.00
2012-1-11,55.7,48.5,42.9,52.5,46.5,37.0,100,93,70,29.87,29.40,12,1,20,0.61
2012-1-12,51.0,43.7,27.0,47.2,40.1,16.8,97,87,65,29.77,29.44,14,2,32,0.11
2012-1-13,27.0,24.8,21.9,21.1,16.8,10.5,83,71,61,30.17,29.76,11,2,21,0.00
2012-1-14,36.3,29.1,18.6,28.1,21.5,16.7,93,74,51,30.24,30.07,13,1,19,0.00
2012-1-15,40.2,32.3,23.5,29.0,25.3,21.8,93,76,51,30.48,30.12,13,1,13,0.00
2012-1-16,46.5,34.7,22.6,36.2,28.2,20.9,95,79,43,30.44,30.18,5,0,7,0.00
2012-1-17,59.3,47.0,40.6,55.8,43.7,35.3,99,88,77,30.18,29.81,15,1,19,0.72
2012-1-18,42.7,32.9,23.9,36.0,24.8,20.3,92,72,55,30.19,30.00,11,1,16,0.00
2012-1-19,39.5,29.3,17.7,29.1,23.3,16.0,95,80,44,30.17,30.01,8,0,10,0.00
2012-1-20,50.8,40.4,28.1,44.9,34.3,25.9,100,80,57,30.11,29.90,4,0,7,0.07
2012-1-21,53.5,47.1,39.6,53.0,45.4,37.8,100,94,82,30.07,29.77,12,1,13,0.93
2012-1-22,58.6,46.4,32.6,47.9,41.4,32.6,100,84,65,30.13,30.01,6,1,10,0.00
2012-1-23,62.1,52.8,45.9,54.1,48.8,43.1,98,87,69,30.01,29.79,10,1,14,0.56
2012-1-24,55.0,42.5,31.8,46.9,37.1,31.0,100,84,47,30.28,29.96,11,1,14,0.00
2012-1-25,60.7,44.0,30.9,45.2,36.8,30.1,98,79,41,30.28,30.05,6,0,8,0.00
2012-1-26,63.9,51.7,42.0,58.4,48.4,39.6,100,89,72,30.05,29.48,12,0,19,0.09
2012-1-27,60.3,44.8,30.3,56.0,40.5,29.8,98,85,67,30.07,29.49,9,1,25,0.26
2012-1-28,47.1,33.8,26.1,38.4,28.8,20.0,99,84,36,30.32,30.00,12,1,18,0.00
2012-1-29,46.2,31.8,19.9,25.9,20.9,14.2,93,69,28,30.40,30.25,20,1,26,0.00
2012-1-30,55.4,35.6,22.4,31.4,25.3,20.4,93,71,29,30.42,30.28,11,1,17,0.00
2012-1-31,60.9,41.2,27.5,34.0,27.7,16.6,95,67,18,30.38,30.18,11,1,21,0.00
2012-2-1,46.4,43.5,36.6,46.4,41.1,31.0,100,92,74,30.22,30.05,3,0,6,0.71
2012-2-2,59.6,48.5,35.0,51.7,41.9,32.4,100,81,39,30.34,30.02,12,1,17,0.09
2012-2-3,60.7,40.8,28.5,41.5,32.6,27.0,98,77,34,30.44,30.26,10,1,12,0.00
2012-2-4,46.8,44.3,39.7,46.8,43.0,36.4,100,95,84,30.25,29.99,3,0,6,0.38
2012-2-5,54.8,47.7,37.6,52.2,43.7,35.7,100,87,60,30.17,29.95,11,2,17,0.10
2012-2-6,50.2,41.0,30.7,41.9,37.1,29.7,97,86,66,30.19,30.09,7,0,8,0.00
2012-2-7,51.6,36.4,25.0,36.7,30.7,24.3,98,82,47,30.24,30.13,5,0,11,0.01
2012-2-8,42.9,37.5,30.3,36.8,32.4,27.5,96,82,68,30.27,30.12,11,1,14,0.00
2012-2-9,40.7,33.9,25.2,28.5,25.6,22.8,93,72,53,30.32,30.19,6,0,10,0.00
2012-2-10,42.0,32.2,23.2,35.9,28.1,22.0,96,86,66,30.20,29.95,5,0,8,0.07
2012-2-11,35.3,27.1,18.5,34.5,19.2,7.4,97,73,47,30.34,29.86,21,4,30,0.03
2012-2-12,34.3,23.4,15.1,18.8,11.5,5.8,87,61,43,30.42,30.30,13,2,14,0.00
2012-2-13,42.7,29.5,15.6,27.5,19.4,13.4,92,69,33,30.34,30.03,5,0,8,0.00
2012-2-14,39.9,37.0,31.2,39.4,32.9,25.3,98,85,73,30.12,29.96,3,0,4,0.02
2012-2-15,59.2,44.2,30.0,41.8,38.0,30.0,100,82,42,30.25,30.08,7,1,10,0.00
2012-2-16,55.6,46.7,40.6,51.5,46.0,35.7,100,97,49,30.09,30.01,7,0,12,0.41
2012-2-17,56.3,44.9,38.5,45.1,38.0,27.9,100,79,34,30.18,30.06,7,1,13,0.00
2012-2-18,59.8,48.2,38.6,39.3,35.3,25.4,90,65,29,30.07,29.90,8,1,11,0.00
2012-2-19,49.2,40.7,32.2,40.3,35.1,29.0,97,83,46,30.04,29.71,13,2,18,1.12
2012-2-20,45.9,33.6,24.1,33.3,29.1,23.4,98,85,52,30.31,30.04,9,1,11,0.05
2012-2-21,58.9,42.5,27.0,41.5,33.8,25.2,96,75,44,30.17,29.87,16,2,30,0.00
2012-2-22,49.5,41.5,29.4,48.9,40.2,28.9,100,95,67,29.93,29.53,9,0,10,0.54
2012-2-23,70.9,54.6,44.2,57.6,49.4,44.2,100,85,49,29.61,29.39,12,1,16,0.01
2012-2-24,67.2,54.2,37.4,60.1,45.1,22.7,99,72,36,29.99,29.39,16,3,30,0.59
2012-2-25,43.9,35.7,25.4,25.0,22.0,17.3,86,59,37,30.35,29.99,19,2,22,0.00
2012-2-26,54.8,35.2,21.9,29.6,22.9,13.7,92,67,20,30.44,30.28,6,1,12,0.00
2012-2-27,59.3,42.9,28.5,40.7,33.9,25.9,93,73,46,30.42,30.28,10,1,14,0.00
2012-2-28,68.2,48.5,31.6,45.8,38.1,30.8,97,73,33,30.39,30.10,7,1,10,0.00
2012-2-29,68.5,59.1,50.5,59.6,54.4,44.8,100,85,68,30.10,29.68,17,2,22,0.37
2012-3-1,66.0,53.8,38.2,59.6,40.2,27.7,97,66,24,29.87,29.68,12,1,18,0.30
2012-3-2,58.4,47.6,36.3,57.1,45.8,34.6,100,93,79,29.85,29.53,8,0,12,0.54
2012-3-3,55.7,46.5,38.6,54.9,34.6,17.9,99,68,26,29.85,29.57,14,1,19,0.14
2012-3-4,42.5,35.8,29.1,31.5,25.2,19.3,88,67,44,29.97,29.77,17,2,22,0.00
2012-3-5,42.6,35.6,25.4,33.7,25.0,16.9,88,67,38,30.48,29.80,25,3,31,0.01
2012-3-6,62.1,39.5,23.0,37.6,26.0,19.5,93,64,26,30.58,30.35,6,1,8,0.00
2012-3-7,65.7,49.8,34.1,45.7,37.3,27.8,89,64,42,30.49,30.29,18,2,19,0.00
2012-3-8,67.3,54.1,41.5,53.6,47.4,38.8,100,81,47,30.30,30.03,12,1,20,0.56
2012-3-9,54.4,46.0,33.7,52.7,34.5,21.7,100,69,30,30.38,30.10,12,2,19,0.11
2012-3-10,60.3,42.0,29.1,36.9,27.4,17.7,91,63,24,30.49,30.34,12,1,13,0.00
2012-3-11,67.8,48.0,30.1,43.6,32.6,25.3,91,62,21,30.49,30.27,7,1,9,0.00
2012-3-12,67.5,56.2,42.7,54.1,47.6,37.8,86,74,57,30.30,30.13,11,1,13,0.00
2012-3-13,72.2,60.5,51.9,59.6,54.2,49.7,96,81,51,30.17,30.05,14,1,16,0.00
2012-3-14,75.7,58.0,43.6,57.0,49.8,43.1,99,78,42,30.23,30.11,9,1,14,0.00
2012-3-15,76.8,58.8,46.1,66.6,52.7,44.7,97,82,53,30.26,30.11,13,1,21,0.48
2012-3-16,72.9,61.1,53.0,59.8,56.4,53.0,100,87,53,30.21,30.07,11,1,17,0.30
2012-3-17,71.4,59.5,49.2,60.2,55.8,49.2,100,89,60,30.22,30.10,8,1,12,0.01
2012-3-18,73.8,61.1,53.6,61.0,57.3,53.0,100,89,58,30.28,30.08,6,0,18,0.60
2012-3-19,78.0,61.8,49.9,60.4,54.4,49.9,100,80,42,30.18,30.03,8,1,17,0.00
2012-3-20,82.8,64.3,52.0,58.3,53.4,49.1,97,73,32,30.16,29.99,12,1,13,0.00
2012-3-21,80.1,64.5,52.2,61.8,56.2,51.1,97,77,43,30.18,30.03,10,1,18,0.00
2012-3-22,80.8,64.6,51.4,60.9,56.1,50.6,98,77,42,30.15,30.02,6,0,13,0.00
2012-3-23,72.6,62.9,56.6,64.6,59.0,55.6,100,88,62,30.04,29.83,6,0,9,0.10
2012-3-24,67.3,55.9,45.9,57.4,51.2,41.8,100,87,42,29.86,29.73,13,1,19,0.26
2012-3-25,63.9,54.1,44.8,55.8,50.0,44.8,100,87,64,29.90,29.77,9,1,17,0.09
2012-3-26,72.4,59.1,46.1,55.1,49.3,44.5,99,74,39,30.11,29.90,9,1,18,0.00
2012-3-27,72.1,53.6,37.7,50.9,39.4,32.5,91,64,27,30.22,30.08,7,1,11,0.00
2012-3-28,77.3,60.4,44.9,59.4,51.5,43.6,96,75,47,30.11,29.86,20,2,25,0.00
2012-3-29,77.0,62.4,50.5,57.5,50.5,42.8,98,71,30,29.95,29.83,14,1,17,0.00
2012-3-30,76.6,59.5,46.5,59.5,52.1,44.9,96,79,44,29.95,29.76,11,1,26,0.00
2012-3-31,71.0,62.4,52.2,61.1,57.6,51.4,100,86,63,29.81,29.70,8,1,13,0.16
2012-4-1,69.0,54.3,43.7,59.7,52.5,43.4,100,94,64,29.87,29.74,6,0,18,0.27
2012-4-2,77.7,61.0,50.4,65.2,57.4,50.4,100,89,57,29.86,29.70,11,1,14,0.02
2012-4-3,80.8,60.5,49.0,62.9,55.8,48.2,100,87,52,29.93,29.75,12,1,14,0.06
2012-4-4,76.8,62.4,51.6,64.3,58.2,51.6,100,88,56,29.84,29.60,7,1,19,0.05
2012-4-5,73.4,60.0,53.9,62.2,57.0,50.1,100,90,61,29.73,29.59,13,1,18,0.21
2012-4-6,64.7,54.5,42.0,50.4,38.7,28.0,87,58,28,30.11,29.73,11,2,19,0.00
2012-4-7,67.0,49.7,32.9,43.0,33.8,25.6,94,62,24,30.25,30.11,7,1,12,0.00
2012-4-8,69.5,53.4,38.5,47.7,40.4,36.6,94,66,33,30.17,30.01,17,1,20,0.00
2012-4-9,68.8,54.0,36.4,41.9,36.4,30.0,92,57,24,30.09,29.88,17,2,19,0.00
2012-4-10,64.7,52.7,39.3,42.3,32.6,19.3,87,52,20,29.97,29.82,16,2,25,0.00
2012-4-11,52.3,42.3,31.9,30.1,25.8,20.1,85,55,31,30.21,29.94,19,2,24,0.00
2012-4-12,59.2,42.3,26.7,39.9,30.5,24.9,94,68,30,30.30,30.10,10,1,13,0.00
2012-4-13,65.8,47.7,31.5,45.9,33.7,25.9,96,66,24,30.23,30.12,8,1,11,0.00
2012-4-14,74.1,56.7,40.5,54.1,44.3,36.9,90,67,35,30.24,30.04,11,0,16,0.00
2012-4-15,78.0,61.2,44.3,60.2,51.5,43.5,97,74,44,30.13,30.00,12,1,14,0.00
2012-4-16,79.3,65.3,50.2,62.2,56.4,49.7,99,76,47,30.09,29.98,11,1,25,0.00
2012-4-17,70.0,61.9,52.3,59.5,53.7,42.4,98,77,46,30.18,30.09,10,1,12,0.04
2012-4-18,57.8,54.1,51.4,55.5,52.6,48.1,99,95,82,30.11,30.01,7,1,11,0.73
2012-4-19,70.9,55.9,45.1,55.8,49.8,41.2,100,84,37,30.06,29.89,7,0,9,0.00
2012-4-20,71.7,56.9,46.2,57.1,52.0,45.9,100,85,53,29.92,29.76,7,0,12,0.00
2012-4-21,66.8,57.1,51.0,59.8,53.2,49.3,100,87,66,29.78,29.72,11,1,17,0.27
2012-4-22,54.4,49.1,40.3,51.2,44.0,37.9,97,83,71,29.76,29.63,16,1,18,0.01
2012-4-23,54.2,44.8,38.7,38.2,30.3,20.0,94,61,27,29.76,29.67,19,2,29,0.01
2012-4-24,59.2,47.2,31.3,45.3,34.7,28.1,89,64,37,29.81,29.72,10,1,22,0.00
2012-4-25,69.2,55.4,46.8,60.3,51.6,45.6,100,88,63,29.89,29.74,6,1,11,0.43
2012-4-26,66.7,60.6,53.5,63.4,59.2,53.5,100,95,83,29.84,29.68,8,1,13,0.29
2012-4-27,69.7,58.2,49.6,62.3,51.9,42.5,100,83,38,30.04,29.83,5,0,8,0.00
2012-4-28,78.6,63.0,48.8,62.4,54.1,46.2,92,74,45,30.07,29.90,8,1,19,0.00
2012-4-29,80.1,65.5,52.6,65.2,58.3,52.3,99,81,47,30.10,30.00,5,0,8,0.00
2012-4-30,81.4,67.1,53.6,65.7,59.2,53.3,99,79,40,30.12,29.95,8,1,18,0.00
2012-5-1,84.1,68.1,56.6,66.4,60.2,56.0,99,79,40,30.06,29.93,8,0,13,0.00
2012-5-2,84.9,70.5,58.7,68.2,62.8,58.4,99,79,49,30.07,29.96,9,1,12,0.00
2012-5-3,83.0,70.9,57.5,69.0,64.0,57.2,100,81,55,30.09,29.96,5,0,7,0.01
2012-5-4,79.2,68.8,62.8,67.3,64.5,62.6,100,88,61,30.07,29.89,10,0,12,0.09
2012-5-5,75.5,66.3,60.6,65.8,63.0,60.3,100,90,65,29.96,29.83,10,0,16,0.16
2012-5-6,82.6,68.8,56.1,66.1,61.4,56.1,100,80,48,29.97,29.84,5,0,8,0.00
2012-5-7,81.2,68.7,58.3,66.6,62.0,57.2,98,81,50,29.92,29.78,6,1,12,0.01
2012-5-8,75.9,67.7,60.3,67.2,62.9,58.7,95,85,68,29.84,29.75,12,1,16,0.17
2012-5-9,66.2,60.3,49.6,61.3,57.0,47.3,98,89,69,29.83,29.72,10,0,13,0.20
2012-5-10,68.7,55.8,43.7,50.5,44.6,36.8,98,70,32,29.99,29.79,14,1,17,0.00
2012-5-11,70.9,55.4,39.3,48.6,41.9,32.4,96,66,25,30.15,29.99,11,1,13,0.00
2012-5-12,75.2,59.7,46.2,61.7,52.2,43.3,95,78,53,30.26,30.13,4,0,7,0.00
2012-5-13,67.7,60.5,56.7,60.1,57.6,55.1,97,90,66,30.15,29.97,5,0,11,0.21
2012-5-14,74.5,64.2,58.6,64.1,60.3,58.0,100,88,64,29.97,29.84,6,0,13,1.28
2012-5-15,73.1,64.6,57.0,64.4,60.1,56.2,98,86,65,29.95,29.88,5,0,10,0.00
2012-5-16,77.1,64.1,53.0,62.9,57.2,52.2,99,81,46,29.97,29.86,5,0,8,0.00
2012-5-17,80.8,65.8,51.3,62.3,56.8,50.8,100,76,39,29.98,29.87,7,1,13,0.00
2012-5-18,80.3,68.3,56.4,63.7,59.6,55.8,99,76,47,30.02,29.93,8,1,14,0.00
2012-5-19,79.7,66.8,55.6,66.4,60.3,55.3,100,82,50,30.10,29.98,7,0,8,0.00
2012-5-20,80.8,67.1,56.1,61.4,56.4,51.3,99,73,39,30.10,29.97,6,0,7,0.00
2012-5-21,82.6,63.8,52.0,64.3,57.4,51.5,99,82,44,29.99,29.84,8,1,20,0.00
2012-5-22,74.0,63.9,55.0,63.1,60.1,55.0,100,88,65,29.88,29.78,8,0,11,0.02
2012-5-23,71.5,64.1,58.7,66.5,62.2,58.6,100,94,74,29.86,29.79,5,0,8,0.05
2012-5-24,80.8,66.7,57.0,65.3,59.2,51.5,100,81,38,29.95,29.85,8,0,11,0.00
2012-5-25,85.7,69.7,56.0,66.8,60.7,51.1,100,77,32,30.06,29.93,7,0,10,0.00
2012-5-26,86.8,70.7,56.9,71.7,63.8,56.6,100,82,48,30.13,30.00,5,0,8,0.00
2012-5-27,89.1,73.6,62.0,70.4,65.9,62.0,100,80,43,30.05,29.92,8,1,10,0.00
2012-5-28,89.0,73.2,61.4,69.9,64.6,59.6,99,78,39,29.98,29.83,10,1,14,0.00
2012-5-29,86.5,70.3,61.8,70.2,65.9,61.5,100,88,51,29.88,29.75,12,0,14,0.94
2012-5-30,84.0,69.6,59.8,69.8,62.6,51.9,100,82,34,29.83,29.73,6,0,13,0.00
2012-5-31,86.3,69.5,55.6,67.6,60.5,51.2,100,77,37,29.85,29.68,5,0,13,0.00
2012-6-1,69.6,65.2,56.2,68.1,61.8,50.4,100,89,63,29.84,29.62,8,0,14,1.05
2012-6-2,69.9,58.1,47.6,54.0,49.7,45.0,100,77,44,29.93,29.83,10,1,16,0.00
2012-6-3,78.1,62.3,48.8,63.0,56.3,48.6,100,83,51,29.95,29.80,11,1,14,0.01
2012-6-4,79.9,65.1,55.7,63.1,59.3,55.4,100,84,47,29.81,29.70,11,0,18,0.02
2012-6-5,76.8,64.4,54.5,61.6,55.9,49.0,100,78,40,29.80,29.70,10,0,12,0.02
2012-6-6,76.7,64.6,53.5,59.7,55.8,50.2,98,76,40,29.93,29.78,7,0,11,0.17
2012-6-7,78.5,65.1,53.9,60.4,55.8,49.4,99,75,38,30.00,29.93,6,0,8,0.01
2012-6-8,81.6,64.3,50.4,59.8,53.5,48.5,97,72,36,30.06,29.93,6,1,10,0.00
2012-6-9,84.3,68.1,53.2,67.1,59.5,52.7,98,76,44,30.04,29.90,5,0,8,0.00
2012-6-10,79.2,70.5,62.4,65.8,62.7,57.8,97,78,54,30.02,29.94,6,0,11,0.00
2012-6-11,79.9,70.7,63.4,70.3,66.0,61.9,97,86,67,29.98,29.88,6,0,10,0.00
2012-6-12,85.1,72.5,65.2,76.4,68.8,65.2,100,89,61,29.91,29.82,9,0,16,0.05
2012-6-13,84.5,71.4,61.0,67.0,61.8,53.9,100,76,37,29.96,29.88,6,0,8,0.00
2012-6-14,85.1,71.8,58.4,66.9,61.5,57.0,96,72,44,30.02,29.93,6,0,8,0.00
2012-6-15,83.6,71.9,61.0,67.7,62.7,59.3,94,75,48,30.13,30.00,5,0,11,0.00
2012-6-16,82.6,70.3,58.0,67.8,62.4,57.3,98,78,52,30.19,30.01,5,0,7,0.00
2012-6-17,78.3,69.3,64.5,69.1,65.4,62.2,98,88,66,30.10,29.92,3,0,8,0.06
2012-6-18,85.1,73.0,62.0,68.3,64.3,61.1,100,78,46,30.00,29.92,10,1,17,0.00
2012-6-19,86.7,73.3,61.0,69.6,65.0,60.9,100,78,46,30.12,30.00,7,0,9,0.00
2012-6-20,89.9,75.7,62.9,73.1,66.8,62.6,100,77,44,30.13,29.97,6,0,8,0.00
2012-6-21,89.7,76.2,64.3,74.6,68.4,64.0,100,79,49,30.03,29.82,6,0,8,0.00
2012-6-22,86.3,73.5,67.1,72.5,69.0,65.6,100,87,56,29.89,29.78,8,0,24,0.39
2012-6-23,87.2,74.6,63.7,72.0,63.2,55.6,100,73,35,29.93,29.85,6,1,11,0.00
2012-6-24,90.7,74.2,59.6,70.0,62.2,56.3,97,70,32,29.94,29.79,7,0,13,0.00
2012-6-25,88.8,75.1,61.2,69.3,63.4,55.8,98,70,33,29.82,29.67,9,0,13,0.00
2012-6-26,81.1,69.8,56.0,60.3,50.5,43.6,83,53,29,29.87,29.75,11,2,18,0.00
2012-6-27,85.3,68.0,50.5,60.9,52.2,46.0,95,63,28,29.99,29.86,12,1,12,0.00
2012-6-28,93.6,73.0,54.2,65.4,58.2,53.4,97,66,28,30.02,29.84,7,1,11,0.00
2012-6-29,99.7,79.4,60.4,69.9,63.8,59.0,96,64,29,29.93,29.74,11,1,16,0.00
2012-6-30,99.9,82.4,68.1,72.1,66.9,60.2,89,64,28,29.85,29.74,8,1,12,0.00
2012-7-1,94.9,81.7,68.9,73.8,68.9,64.8,93,69,38,29.94,29.79,11,1,22,0.48
2012-7-2,88.4,74.7,66.0,74.1,69.2,66.0,100,85,53,30.03,29.89,7,1,16,0.20
2012-7-3,92.1,76.0,66.3,71.7,67.5,63.9,99,78,42,30.00,29.85,7,1,17,0.04
2012-7-4,90.3,73.6,64.2,79.8,69.4,64.2,100,89,50,30.00,29.87,8,1,12,0.57
2012-7-5,92.9,74.4,66.9,76.9,70.4,66.6,100,89,49,30.05,29.84,30,1,35,0.70
2012-7-6,89.9,74.8,65.0,75.4,69.2,65.0,100,85,51,30.01,29.87,2,0,6,0.00
2012-7-7,94.7,80.1,69.3,76.0,72.3,65.7,100,80,39,29.97,29.85,4,0,7,0.00
2012-7-8,92.6,80.7,70.1,77.6,73.7,69.8,100,81,55,29.95,29.77,11,1,18,0.34
2012-7-9,86.7,74.9,68.1,75.2,71.0,68.1,100,89,59,29.92,29.83,5,0,6,0.21
2012-7-10,80.9,72.7,68.6,73.9,70.6,67.8,100,94,70,29.97,29.85,6,0,10,1.01
2012-7-11,72.5,69.5,66.8,71.6,68.9,66.8,100,98,93,30.04,29.93,6,0,7,0.25
2012-7-12,74.4,68.5,65.5,70.8,66.9,64.5,100,95,83,30.08,30.01,7,1,10,0.57
2012-7-13,83.4,71.7,66.1,74.3,69.3,65.7,100,92,69,30.09,30.00,6,0,8,0.38
2012-7-14,87.8,74.7,67.1,74.5,70.8,67.1,100,89,57,30.12,30.01,7,0,10,0.00
2012-7-15,87.6,75.4,66.1,74.8,70.7,66.1,100,87,58,30.14,29.99,6,0,10,0.00
2012-7-16,85.5,74.9,67.3,75.4,71.8,67.3,100,91,66,30.05,29.91,6,0,12,0.00
2012-7-17,84.3,74.7,69.3,75.9,72.2,69.3,100,92,73,29.97,29.86,5,0,8,0.01
2012-7-18,83.0,74.0,68.6,75.6,72.3,68.6,100,95,75,29.98,29.85,7,0,10,0.32
2012-7-19,87.0,75.7,68.3,75.7,71.6,66.7,100,89,64,30.00,29.84,10,1,20,0.23
2012-7-20,82.8,72.8,67.9,73.3,70.2,67.9,100,92,68,29.94,29.85,5,0,8,0.11
2012-7-21,86.3,75.9,69.1,74.8,71.9,69.1,100,89,61,30.00,29.88,7,0,9,0.18
2012-7-22,85.9,75.9,70.1,76.5,73.0,70.1,100,91,66,30.10,29.99,6,0,12,0.25
2012-7-23,87.4,75.4,67.3,75.8,71.7,67.3,100,90,62,30.14,29.98,7,0,12,0.00
2012-7-24,88.6,76.0,68.6,76.2,71.6,66.3,100,87,57,30.00,29.86,8,0,16,0.00
2012-7-25,88.8,76.5,67.9,78.6,72.7,67.9,100,89,65,29.95,29.81,6,0,11,0.09
2012-7-26,91.0,78.8,68.6,76.3,72.5,68.6,100,83,54,29.87,29.72,12,1,14,0.00
2012-7-27,86.7,77.9,71.6,75.2,73.0,71.3,100,86,62,29.88,29.77,7,0,12,0.00
2012-7-28,87.4,74.7,65.5,74.9,68.5,64.6,100,82,55,29.96,29.88,7,0,11,0.02
2012-7-29,85.9,72.6,62.0,71.0,66.4,61.6,100,83,47,30.00,29.90,6,0,8,0.01
2012-7-30,88.4,74.8,64.2,71.1,67.0,62.7,100,79,43,29.94,29.83,6,0,8,0.00
2012-7-31,84.9,72.9,64.5,73.6,68.7,64.5,100,88,62,29.91,29.77,12,0,14,0.25
2012-8-1,84.3,69.6,63.2,75.4,67.7,63.2,100,94,67,29.93,29.77,6,0,8,0.16
2012-8-2,87.8,73.6,63.4,74.6,69.6,63.4,100,89,57,29.88,29.79,3,0,6,0.01
2012-8-3,85.5,71.9,65.8,76.0,69.7,65.8,100,94,69,29.96,29.81,8,0,12,1.58
2012-8-4,85.5,74.0,66.8,74.4,70.4,66.8,100,90,64,30.07,29.93,6,0,10,0.00
2012-8-5,87.6,73.7,66.9,75.3,70.6,66.9,100,91,64,30.11,30.00,7,0,17,0.24
2012-8-6,79.4,71.7,67.6,74.5,70.8,67.6,100,97,80,30.09,29.95,2,0,7,0.08
2012-8-7,85.5,74.1,68.1,76.0,71.5,68.1,100,92,65,29.97,29.86,5,0,7,0.00
2012-8-8,87.4,75.8,69.4,75.6,70.9,63.9,100,87,47,29.97,29.86,3,0,7,0.00
2012-8-9,84.9,71.5,65.8,74.5,69.2,65.8,100,93,66,29.92,29.77,5,0,37,0.65
2012-8-10,77.9,70.3,63.9,72.4,68.7,63.9,100,95,79,29.79,29.71,7,0,12,0.02
2012-8-11,80.1,69.6,60.2,69.4,62.9,53.1,100,82,44,29.94,29.79,8,0,12,0.00
2012-8-12,80.1,65.9,54.2,66.0,60.1,54.2,100,84,47,30.00,29.93,5,0,8,0.00
2012-8-13,81.4,67.9,56.7,67.9,62.8,56.7,100,86,50,30.01,29.87,7,0,11,0.00
2012-8-14,77.4,69.6,64.7,70.9,66.9,63.7,100,92,75,29.92,29.82,8,0,10,0.02
2012-8-15,79.4,68.7,62.6,71.5,65.6,62.6,100,91,60,29.97,29.85,7,0,18,0.17
2012-8-16,82.4,68.1,58.0,68.5,63.2,58.0,100,87,54,30.03,29.87,5,0,7,0.00
2012-8-17,76.8,68.2,60.2,70.7,65.2,60.2,100,91,72,29.94,29.83,3,0,7,0.00
2012-8-18,81.1,70.3,63.2,67.2,64.3,58.8,100,83,49,29.89,29.78,6,0,7,0.00
2012-8-19,76.8,67.7,62.7,67.9,64.5,61.2,100,90,64,29.84,29.77,3,0,10,0.30
2012-8-20,80.7,68.0,59.5,65.8,61.7,54.7,100,83,44,29.94,29.80,8,0,13,0.00
2012-8-21,81.1,65.1,53.1,63.6,57.8,51.8,100,81,38,30.02,29.94,3,0,6,0.00
2012-8-22,82.4,66.3,53.6,63.7,58.6,53.6,100,80,42,30.09,29.99,6,0,7,0.00
2012-8-23,84.5,68.8,56.5,67.4,61.4,56.5,100,81,44,30.11,30.00,7,0,8,0.00
2012-8-24,85.3,70.6,58.7,68.0,63.0,58.7,100,80,42,30.10,29.97,5,0,10,0.00
2012-8-25,84.5,69.5,58.9,70.5,64.5,58.9,100,86,56,30.11,30.00,5,0,8,0.00
2012-8-26,86.1,70.4,58.3,70.8,64.2,58.3,100,83,47,30.13,30.00,5,0,7,0.00
2012-8-27,88.2,71.5,58.9,69.3,64.0,57.6,100,81,37,30.10,29.92,6,0,7,0.00
2012-8-28,88.6,73.0,59.6,70.9,65.9,59.6,100,81,47,29.99,29.84,5,0,12,0.00
2012-8-29,87.2,75.2,65.8,70.4,66.8,60.1,100,79,43,29.94,29.85,7,1,12,0.00
2012-8-30,89.7,73.8,61.8,72.6,66.9,61.5,100,81,55,30.06,29.91,6,0,11,0.00
2012-8-31,88.6,75.9,65.0,75.0,70.5,65.0,100,85,56,30.16,30.03,3,0,0,0.00
2012-9-1,88.6,76.7,67.8,74.0,71.0,68.0,100,85,56,30.12,29.94,6,0,0,0.03
2012-9-2,87.0,74.8,68.4,74.0,71.1,68.0,100,90,58,29.98,29.81,5,0,0,0.14
2012-9-3,80.7,72.7,68.1,74.0,70.8,68.0,100,94,77,29.89,29.82,3,0,0,0.16
2012-9-4,83.0,74.3,66.3,74.0,70.6,66.0,100,89,68,29.86,29.78,5,0,0,0.00
2012-9-5,84.1,75.5,70.8,76.0,72.9,71.0,100,92,71,29.84,29.74,6,0,0,0.24
2012-9-6,82.0,72.1,68.3,72.0,69.8,68.0,100,93,65,29.91,29.79,0,0,0,0.01
2012-9-14,78.7,66.4,56.9,67.5,61.1,56.9,100,85,54,30.22,30.09,3,0,0,0.00
2012-9-15,79.0,66.4,55.3,66.0,61.3,55.0,100,86,55,30.18,30.04,3,0,0,0.00
2012-9-16,77.0,67.0,61.0,67.0,63.0,61.0,99,88,64,30.07,29.95,2,0,0,0.00
2012-9-17,69.6,65.5,61.0,68.0,64.9,61.0,100,98,87,29.98,29.70,3,0,0,0.70
2012-9-18,69.4,64.9,55.1,67.0,64.4,54.5,100,98,87,29.91,29.58,5,0,0,2.69
2012-9-19,69.3,56.9,47.1,58.2,51.6,47.0,100,85,47,30.09,29.92,6,0,0,0.00
2012-9-20,74.6,59.0,48.4,64.0,55.3,48.4,100,89,57,30.10,29.96,6,0,0,0.00
2012-9-21,76.3,63.3,53.8,64.7,59.3,53.8,100,89,58,30.04,29.88,6,0,0,0.00
2012-9-22,78.5,64.5,51.5,65.3,58.0,49.7,100,82,49,30.02,29.85,6,1,0,0.00
2012-9-23,67.8,54.5,44.5,50.1,45.7,38.0,100,77,34,30.17,30.01,7,0,0,0.00
2012-9-24,66.0,50.5,37.9,50.8,42.8,37.0,100,79,37,30.26,30.10,4,0,0,0.00
2012-9-25,67.8,53.3,41.7,59.3,48.6,41.4,100,86,56,30.19,30.08,3,0,0,0.00
2012-9-26,77.7,60.6,50.0,63.0,56.3,50.0,100,88,51,30.18,30.07,4,0,0,0.00
2012-9-27,78.1,63.9,52.0,65.0,59.4,52.0,100,87,56,30.18,30.05,6,0,0,0.00
2012-9-28,75.4,64.8,57.1,67.0,62.7,57.0,100,94,71,30.07,29.95,6,0,0,0.32
2012-9-29,71.4,63.9,55.2,67.0,62.7,55.0,100,96,79,29.96,29.85,4,0,0,0.34
2012-9-30,68.1,55.8,46.8,59.0,53.0,47.0,100,92,51,29.91,29.80,5,0,0,0.00
2012-10-1,64.6,60.8,55.8,63.0,59.7,55.0,100,96,89,29.82,29.63,8,1,8,0.33
2012-10-2,81.6,68.7,62.2,71.2,65.5,62.2,100,91,64,29.88,29.63,10,1,14,0.43
2012-10-3,73.7,65.1,58.7,64.3,61.4,58.7,100,89,62,30.12,29.87,8,0,11,0.00
2012-10-4,74.5,63.2,53.6,62.4,58.7,53.4,100,87,50,30.23,30.11,7,0,10,0.00
2012-10-5,75.2,59.5,49.2,60.6,54.8,49.2,100,87,46,30.19,29.97,6,0,8,0.00
2012-10-6,63.2,56.4,52.7,60.5,53.8,46.4,100,92,77,30.03,29.90,11,0,12,0.00
2012-10-7,52.7,49.1,42.0,49.5,46.7,41.4,100,92,67,30.15,29.94,5,0,11,0.11
2012-10-8,49.2,46.0,42.1,48.0,45.2,42.1,100,97,91,30.20,30.10,4,0,8,0.23
2012-10-9,56.1,49.2,40.1,49.5,46.9,40.1,100,93,70,30.15,30.03,5,0,7,0.00
2012-10-10,59.0,48.0,38.4,53.9,46.6,38.4,100,95,79,30.19,30.02,6,0,12,0.00
2012-10-11,64.6,47.7,34.1,46.8,41.0,33.0,100,82,31,30.28,30.17,7,0,8,0.00
2012-10-12,64.3,52.6,43.0,55.3,48.2,42.8,100,87,49,30.29,30.17,6,0,7,0.00
2012-10-13,71.9,51.7,40.1,57.8,47.2,40.1,100,87,53,30.33,30.16,5,1,1,0.00
2012-10-14,72.9,58.2,44.5,62.5,54.0,44.5,100,88,58,30.18,29.86,4,0,0,0.00
2012-10-15,67.5,59.3,43.2,61.3,53.5,42.7,100,83,48,29.92,29.79,7,1,0,0.30
2012-10-16,65.4,49.9,38.1,51.1,44.4,38.1,100,84,44,30.00,29.86,3,0,0,0.00
2012-10-17,71.8,52.4,39.3,55.0,45.9,39.3,100,82,39,29.95,29.73,2,0,0,0.00
2012-10-18,69.1,57.8,46.2,59.1,51.3,45.1,97,80,60,29.76,29.65,4,1,0,0.00
2012-10-19,65.8,54.3,38.6,50.7,40.6,32.6,100,66,29,29.74,29.62,6,1,9,0.00
2012-10-20,58.5,52.4,45.6,47.5,44.0,40.8,93,74,55,29.97,29.72,7,0,12,0.00
2012-10-21,64.8,50.0,37.1,49.8,44.3,37.1,100,83,53,30.16,29.97,7,0,10,0.00
2012-10-22,74.5,54.1,40.3,56.7,47.7,40.0,100,82,42,30.23,30.08,3,0,10,0.00
2012-10-23,75.2,58.5,44.0,57.9,51.6,44.0,100,81,47,30.17,30.04,7,0,10,0.00
2012-10-24,76.3,56.8,44.0,57.4,50.0,44.0,100,82,36,30.19,30.02,4,0,6,0.00
2012-10-25,78.4,57.7,42.7,56.0,49.5,42.4,100,79,35,30.11,29.96,5,0,7,0.00
2012-10-26,77.2,59.7,48.6,60.3,53.0,48.1,100,82,45,30.05,29.87,5,0,8,0.00
2012-10-27,61.4,54.0,49.3,55.8,51.0,45.3,97,90,78,29.90,29.82,12,1,15,0.02
2012-10-28,49.6,46.0,40.1,46.7,43.9,39.6,100,93,84,29.90,29.82,6,0,12,0.43
2012-10-29,41.9,39.4,36.1,40.6,36.9,33.2,100,91,79,29.89,29.67,13,1,17,0.05
2012-10-30,39.4,37.4,36.0,37.0,35.5,33.1,96,93,89,29.73,29.53,10,1,14,0.22
2012-10-31,51.4,43.6,37.8,38.0,35.4,31.5,93,74,55,29.81,29.71,7,1,16,0.00
2012-11-1,54.5,45.3,38.3,35.7,31.8,17.2,81,62,25,29.91,29.81,10,1,19,0.00
2012-11-2,59.7,46.7,36.3,40.5,35.6,30.7,90,68,34,30.00,29.85,14,1,21,0.00
2012-11-3,60.3,43.6,30.2,41.7,33.9,26.3,97,73,29,30.14,29.94,6,0,7,0.00
2012-11-4,58.7,48.1,35.1,45.8,41.1,33.8,96,78,55,30.05,29.91,7,0,12,0.00
2012-11-5,53.7,38.7,28.6,38.4,32.1,27.5,98,80,37,30.12,29.99,6,0,8,0.00
2012-11-6,44.4,38.7,31.0,40.6,35.7,29.5,98,89,72,30.04,29.90,3,0,5,0.01
2012-11-7,45.5,40.5,32.0,42.8,39.3,32.0,100,96,85,30.04,29.84,2,0,5,0.07
2012-11-8,54.0,36.8,27.7,42.9,32.5,27.5,100,87,41,30.21,30.04,7,0,11,0.01
2012-11-9,55.4,34.7,26.1,38.7,31.2,25.1,97,88,50,30.32,30.18,7,0,7,0.00
2012-11-10,66.1,42.2,29.3,42.5,35.1,28.6,98,80,34,30.37,30.23,5,0,6,0.00
2012-11-11,71.0,52.1,30.8,51.4,39.6,30.0,98,68,27,30.38,30.19,16,2,22,0.00
2012-11-12,67.8,59.3,42.6,58.7,51.1,41.5,99,76,59,30.31,30.01,19,3,24,0.35
2012-11-13,47.5,36.6,27.7,41.6,30.8,26.5,98,81,48,30.44,30.30,6,0,12,0.01
2012-11-14,50.3,36.2,24.9,34.9,29.0,23.1,95,78,41,30.42,30.25,6,1,12,0.00
2012-11-15,54.9,38.8,31.3,38.1,32.5,29.3,95,81,47,30.32,30.19,5,0,6,0.00
2012-11-16,54.9,37.1,25.9,36.5,30.3,24.9,96,80,39,30.37,30.25,7,1,10,0.00
2012-11-17,61.0,39.8,26.2,34.6,28.9,24.2,95,70,25,30.48,30.33,7,1,11,0.00
2012-11-18,59.0,42.1,29.6,39.5,32.6,25.0,90,71,44,30.48,30.31,10,1,16,0.00
2012-11-19,60.7,43.4,32.4,44.8,37.7,30.8,96,82,49,30.35,30.17,5,0,9,0.00
2012-11-20,61.0,43.9,34.7,44.9,38.2,33.7,98,83,43,30.18,30.03,6,0,8,0.00
2012-11-21,63.2,45.4,34.4,41.3,37.1,33.4,97,77,37,30.18,30.06,6,0,8,0.00
2012-11-22,62.9,41.8,29.3,40.6,34.6,28.3,97,79,38,30.26,30.11,3,0,7,0.00
2012-11-23,56.0,39.9,29.8,46.8,35.6,29.1,98,86,65,30.15,29.96,7,0,16,0.00
2012-11-24,41.3,33.5,21.3,29.9,23.0,18.4,89,66,43,30.17,30.04,11,1,16,0.00
2012-11-25,49.0,30.1,18.7,26.0,21.4,16.5,92,74,28,30.20,30.02,8,0,13,0.00
2012-11-26,54.9,36.5,23.0,41.5,28.1,20.2,96,75,31,30.24,30.10,4,0,6,0.03
2012-11-27,46.0,42.4,38.4,43.7,40.3,35.2,100,93,79,30.26,30.08,7,0,8,0.10
2012-11-28,47.7,36.2,24.8,35.9,30.6,23.1,98,82,48,30.41,30.23,7,0,10,0.00
2012-11-29,52.8,30.5,20.8,32.6,25.2,19.3,94,83,40,30.46,30.30,5,0,7,0.00
2012-11-30,55.1,34.9,23.9,41.0,31.0,22.7,97,87,57,30.39,30.24,12,0,20,0.00
2012-12-1,61.8,42.7,32.2,45.7,38.2,31.6,99,86,54,30.38,30.24,6,0,10,0.00
2012-12-2,64.8,46.9,32.7,50.5,42.3,32.5,100,86,58,30.32,30.17,13,0,17,0.00
2012-12-3,67.9,53.2,42.3,51.8,47.5,41.2,98,83,54,30.27,30.14,7,0,11,0.00
2012-12-4,67.9,52.2,38.6,53.4,47.2,38.1,99,85,57,30.25,30.09,9,0,12,0.00
2012-12-5,59.9,48.1,30.8,55.9,42.3,29.5,96,83,41,30.26,30.07,7,1,16,0.13
2012-12-6,49.7,42.8,30.7,44.0,37.1,29.2,95,81,56,30.20,30.06,6,0,10,0.02
2012-12-7,62.4,47.6,38.4,50.8,44.3,38.1,100,89,64,30.08,29.90,6,0,7,0.01
2012-12-8,65.9,53.1,45.9,55.3,50.0,45.1,100,90,63,29.98,29.88,10,0,12,0.01
2012-12-9,69.3,57.4,48.4,58.1,53.7,47.6,100,89,59,30.02,29.83,6,0,11,0.01
2012-12-10,56.5,52.9,41.1,56.2,52.2,39.4,100,97,92,29.84,29.59,8,0,17,1.23
2012-12-11,41.3,36.4,29.5,39.7,32.5,28.5,98,86,72,30.20,29.84,8,1,13,0.00
2012-12-12,42.7,33.5,29.0,30.3,29.0,27.1,98,85,55,30.32,30.20,7,1,9,0.00
2012-12-13,51.5,32.4,25.6,36.0,29.1,24.6,97,89,50,30.38,30.28,5,0,6,0.00
2012-12-14,52.4,34.2,23.7,38.9,29.9,22.7,97,86,46,30.42,30.20,5,0,6,0.00
2012-12-15,57.1,42.4,32.0,41.6,36.2,30.9,97,81,44,30.21,29.94,3,0,6,0.00
2012-12-16,53.3,48.3,43.8,53.0,48.1,41.9,100,99,92,29.98,29.76,7,0,12,0.45
2012-12-17,52.6,47.1,41.8,52.6,47.0,41.8,100,100,93,29.79,29.58,13,0,20,0.19
2012-12-18,49.3,42.2,29.8,46.2,38.1,29.3,100,87,57,29.94,29.63,8,1,14,0.01
2012-12-19,55.8,38.3,27.0,44.6,35.0,26.5,99,89,59,30.09,29.93,3,0,8,0.00
2012-12-20,51.2,43.1,32.7,48.2,41.7,30.7,100,95,77,30.02,29.52,13,1,20,0.53
2012-12-21,35.7,32.7,29.2,30.5,25.3,19.1,89,75,59,30.08,29.68,17,3,28,0.04
2012-12-22,39.1,29.2,21.7,24.7,20.4,17.8,92,71,49,30.29,30.08,8,1,18,0.01
2012-12-23,48.4,32.3,18.3,40.1,27.3,16.4,100,85,44,30.19,29.99,5,0,11,0.26
2012-12-24,45.6,43.0,40.0,45.6,43.0,40.0,100,100,100,29.98,29.79,5,0,9,0.58
2012-12-25,48.3,44.7,41.4,45.3,42.7,41.4,100,93,78,30.04,29.85,9,1,13,0.10
2012-12-26,52.0,43.0,33.1,46.1,39.9,29.2,97,89,73,29.87,29.39,16,4,30,0.74
2012-12-27,33.4,32.2,31.3,29.8,28.0,26.8,90,85,79,30.13,29.87,6,0,13,0.00
2012-12-28,39.8,35.1,30.2,34.9,30.1,26.2,91,82,73,30.13,29.77,7,1,11,0.01
2012-12-29,41.0,36.1,30.2,38.9,32.4,23.6,99,86,72,30.17,29.67,16,1,17,0.18
2012-12-30,36.0,28.3,22.0,24.7,21.1,-99.9,95,76,58,30.48,30.17,14,1,17,0.00
2012-12-31,37.4,30.2,20.9,31.8,26.0,19.4,96,85,65,30.40,30.11,3,0,6,0.00
2013-1-1,41.8,37.6,34.5,42.0,36.5,30.5,100,96,81,30.11,29.93,8,0,13,0.59